This is the latest recevied weather packets stored in our database for station/object AD4WX-13. If no packets are shown the sender has not sent any weather packets the latest 10 day(s).
| Time | Temp. | Humidity | Pressure | Rain* | Wind** | Luminosity | Snow |
|---|---|---|---|---|---|---|---|
| 1777671224 | 18.89° C | 44% | 1012.1 hPa | 0 mm | - | 380 W/m² | - |
| 1777663910 | 19.44° C | 45% | 1014.1 hPa | 0 mm | - | 540 W/m² | - |
| 1777660798 | 19.44° C | 47% | 1014.6 hPa | 0 mm | - | 561 W/m² | - |
| 1777660106 | 19.44° C | 50% | 1014.4 hPa | 0 mm | - | 737 W/m² | - |
| 1777649715 | 18.33° C | 59% | 1014.8 hPa | 0 mm | - | 705 W/m² | - |
| 1777649024 | 18.33° C | 60% | 1014.9 hPa | 0 mm | - | 701 W/m² | - |
| 1777645247 | 16.11° C | 66% | 1015 hPa | 0 mm | - | 575 W/m² | - |
| 1777644578 | 16.11° C | 66% | 1014.8 hPa | 0 mm | - | 424 W/m² | - |
| 1777643923 | 16.11° C | 66% | 1014.8 hPa | 0 mm | - | 598 W/m² | - |
| 1777637880 | 8.89° C | 91% | 1014.7 hPa | 0 mm | - | 213 W/m² | - |
| 1777637204 | 7.78° C | 91% | 1014.7 hPa | 0 mm | - | 109 W/m² | - |
| 1777620371 | 10° C | 91% | 1012.9 hPa | 0 mm | - | 0 W/m² | - |
| 1777617843 | 10° C | 91% | 1013.4 hPa | 0 mm | - | 0 W/m² | - |
| 1777614728 | 10° C | 91% | 1013.8 hPa | 0 mm | - | 0 W/m² | - |
| 1777607386 | 10° C | 89% | 1014.2 hPa | 0 mm | - | 0 W/m² | - |
| 1777598745 | 12.22° C | 81% | 1013.5 hPa | 0 mm | - | 0 W/m² | - |
| 1777593242 | 15.56° C | 65% | 1013.1 hPa | 0 mm | - | 33 W/m² | - |
| 1777588957 | 17.22° C | 46% | 1013.3 hPa | 0 mm | - | 174 W/m² | - |
| 1777588297 | 17.78° C | 43% | 1013.3 hPa | 0 mm | - | 160 W/m² | - |
| 1777586388 | 17.78° C | 43% | 1013.4 hPa | 0 mm | - | 387 W/m² | - |
| 1777583346 | 17.78° C | 46% | 1013.5 hPa | 0 mm | - | 555 W/m² | - |
| 1777582022 | 17.78° C | 43% | 1013.6 hPa | 0 mm | - | 443 W/m² | - |
| 1777572901 | 18.33° C | 43% | 1014.8 hPa | 0 mm | - | 807 W/m² | - |
| 1777570419 | 17.78° C | 43% | 1015.1 hPa | 0 mm | - | 921 W/m² | - |
| 1777563164 | 16.11° C | 47% | 1015.4 hPa | 0 mm | - | 731 W/m² | - |
* Rain latest hour (hover to see other rain measurements)
** Current wind speed in m/s (hover to see current wind gust speed)